Time;durP1;ratioP1;P1;durP2;ratioP2;P2;SDS_P1;SDS_P2;PMS_P1;PMS_P2;Temp;Humidity;BMP_temperature;BMP_pressure;BME280_temperature;BME280_humidity;BME280_pressure;Samples;Min_cycle;Max_cycle;Signal;HPM_P1;HPM_P2
2022/09/18 00:04:21;;;;;;;0.70;0.70;;;;;;;;;;10369253;28;20469;-57
2022/09/18 00:09:22;;;;;;;4.40;1.05;;;;;;;;;;10350017;28;20214;-57
2022/09/18 00:14:22;;;;;;;1.20;1.00;;;;;;;;;;10346491;28;20049;-57
2022/09/18 00:19:22;;;;;;;1.25;0.95;;;;;;;;;;10372408;28;20060;-57
2022/09/18 00:24:23;;;;;;;3.97;1.20;;;;;;;;;;10351028;28;20030;-59
2022/09/18 00:29:23;;;;;;;1.35;0.90;;;;;;;;;;10364557;28;20029;-57
2022/09/18 00:34:23;;;;;;;1.65;1.08;;;;;;;;;;10368097;28;20036;-58
2022/09/18 00:39:24;;;;;;;1.60;0.90;;;;;;;;;;10354599;28;20030;-57
2022/09/18 00:44:32;;;;;;;2.03;1.00;;;;;;;;;;10368019;28;20046;-57
2022/09/18 00:49:33;;;;;;;3.08;1.20;;;;;;;;;;10346539;28;20234;-57
2022/09/18 00:54:37;;;;;;;2.22;0.90;;;;;;;;;;10353838;28;20324;-57
2022/09/18 00:59:39;;;;;;;2.33;1.25;;;;;;;;;;10353504;28;20477;-57
2022/09/18 01:04:39;;;;;;;2.35;0.80;;;;;;;;;;10358607;28;20030;-57
2022/09/18 01:09:41;;;;;;;4.00;1.03;;;;;;;;;;10366682;28;20034;-57
2022/09/18 01:14:47;;;;;;;1.58;0.80;;;;;;;;;;10365752;28;20502;-57
2022/09/18 01:20:03;;;;;;;2.83;0.98;;;;;;;;;;10367092;28;20030;-57
2022/09/18 01:25:23;;;;;;;1.80;1.00;;;;;;;;;;10384359;28;20030;-57
2022/09/18 01:30:23;;;;;;;4.07;1.23;;;;;;;;;;10362272;28;20507;-57
2022/09/18 01:35:35;;;;;;;3.43;1.37;;;;;;;;;;10344532;28;20046;-58
2022/09/18 01:40:38;;;;;;;1.20;0.90;;;;;;;;;;10362799;28;20436;-57
2022/09/18 01:45:46;;;;;;;4.05;0.95;;;;;;;;;;10364172;28;20030;-57
2022/09/18 01:50:50;;;;;;;1.77;0.80;;;;;;;;;;10358482;28;20087;-57
2022/09/18 01:55:54;;;;;;;1.10;1.00;;;;;;;;;;10364457;28;20030;-57
2022/09/18 02:00:57;;;;;;;1.52;1.00;;;;;;;;;;10365288;28;20018;-57
2022/09/18 02:06:09;;;;;;;1.92;1.20;;;;;;;;;;10361060;28;20026;-57
2022/09/18 02:11:10;;;;;;;0.68;0.68;;;;;;;;;;10361807;28;20057;-58
2022/09/18 02:16:14;;;;;;;1.27;0.80;;;;;;;;;;10356473;28;20042;-57
2022/09/18 02:21:17;;;;;;;1.30;0.82;;;;;;;;;;10361790;28;20045;-57
2022/09/18 02:26:18;;;;;;;1.30;0.95;;;;;;;;;;10361825;28;20066;-57
2022/09/18 02:31:18;;;;;;;0.90;0.77;;;;;;;;;;10365085;28;20034;-57
2022/09/18 02:36:22;;;;;;;1.38;0.90;;;;;;;;;;10364778;28;20030;-57
2022/09/18 02:41:22;;;;;;;1.00;0.80;;;;;;;;;;10364045;28;20030;-58
2022/09/18 02:46:30;;;;;;;1.63;0.90;;;;;;;;;;10372030;28;20022;-57
2022/09/18 02:51:39;;;;;;;1.17;0.93;;;;;;;;;;10368986;28;20095;-57
2022/09/18 02:56:39;;;;;;;;;;;;;;;;;;10370870;28;20034;-57
2022/09/18 03:01:41;;;;;;;1.27;0.90;;;;;;;;;;10370399;28;20412;-57
2022/09/18 03:06:41;;;;;;;0.70;0.70;;;;;;;;;;10372700;28;20162;-58
2022/09/18 03:11:41;;;;;;;2.27;0.87;;;;;;;;;;10367781;28;20188;-57
2022/09/18 03:16:42;;;;;;;1.25;0.85;;;;;;;;;;10370847;28;20411;-57
2022/09/18 03:21:42;;;;;;;1.60;1.10;;;;;;;;;;10369413;28;20397;-57
2022/09/18 03:26:43;;;;;;;0.77;0.70;;;;;;;;;;10392260;28;20023;-57
2022/09/18 03:31:43;;;;;;;1.95;0.98;;;;;;;;;;10364105;28;20116;-57
2022/09/18 03:36:44;;;;;;;1.73;0.80;;;;;;;;;;10369981;28;20022;-58
2022/09/18 03:41:44;;;;;;;1.00;0.90;;;;;;;;;;10356730;28;20037;-58
2022/09/18 03:46:44;;;;;;;0.73;0.60;;;;;;;;;;10369909;28;20366;-57
2022/09/18 03:51:44;;;;;;;2.20;0.70;;;;;;;;;;10368821;28;20033;-57
2022/09/18 03:56:45;;;;;;;4.55;0.85;;;;;;;;;;10369371;28;20109;-57
2022/09/18 04:01:46;;;;;;;0.97;0.87;;;;;;;;;;10354282;28;20025;-57
2022/09/18 04:06:46;;;;;;;1.00;0.90;;;;;;;;;;10347668;28;20272;-57
2022/09/18 04:11:46;;;;;;;0.70;0.70;;;;;;;;;;10351660;28;20389;-57
2022/09/18 04:16:47;;;;;;;1.60;0.68;;;;;;;;;;10343214;28;20397;-58
2022/09/18 04:21:47;;;;;;;0.80;0.80;;;;;;;;;;10354487;28;20416;-57
2022/09/18 04:26:48;;;;;;;0.70;0.70;;;;;;;;;;10396814;28;21056;-58
2022/09/18 04:31:49;;;;;;;1.85;0.77;;;;;;;;;;10361963;28;20179;-57
2022/09/18 04:36:49;;;;;;;2.67;0.93;;;;;;;;;;10347394;28;20434;-58
2022/09/18 04:41:50;;;;;;;0.65;0.65;;;;;;;;;;10364962;28;20428;-58
2022/09/18 04:46:50;;;;;;;1.23;0.93;;;;;;;;;;10367555;28;20018;-57
2022/09/18 04:51:51;;;;;;;1.07;0.87;;;;;;;;;;10359830;28;20046;-57
2022/09/18 04:56:51;;;;;;;2.00;1.00;;;;;;;;;;10363157;28;20026;-57
2022/09/18 05:01:51;;;;;;;2.35;0.70;;;;;;;;;;10337376;28;20054;-57
2022/09/18 05:06:51;;;;;;;0.80;0.80;;;;;;;;;;10367125;28;20026;-57
2022/09/18 05:11:53;;;;;;;2.83;0.68;;;;;;;;;;10366119;28;20041;-57
2022/09/18 05:16:55;;;;;;;1.27;0.70;;;;;;;;;;10366559;28;20045;-57
2022/09/18 05:21:55;;;;;;;1.15;0.90;;;;;;;;;;10349096;28;20429;-57
2022/09/18 05:26:55;;;;;;;0.90;0.75;;;;;;;;;;10394810;28;20056;-58
2022/09/18 05:31:56;;;;;;;3.40;0.70;;;;;;;;;;10350325;28;20029;-57
2022/09/18 05:36:56;;;;;;;1.58;0.88;;;;;;;;;;10366045;28;20018;-57
2022/09/18 05:41:56;;;;;;;1.08;0.70;;;;;;;;;;10352724;28;20038;-57
2022/09/18 05:46:57;;;;;;;1.75;0.60;;;;;;;;;;10351124;28;20072;-57
2022/09/18 05:51:57;;;;;;;0.60;0.60;;;;;;;;;;10364633;28;20165;-57
2022/09/18 05:56:58;;;;;;;0.60;0.60;;;;;;;;;;10350051;28;20030;-57
2022/09/18 06:01:58;;;;;;;1.20;0.68;;;;;;;;;;10363616;28;20439;-57
2022/09/18 06:07:00;;;;;;;1.05;0.73;;;;;;;;;;10351493;28;20037;-57
2022/09/18 06:12:00;;;;;;;0.63;0.63;;;;;;;;;;10364449;28;20515;-57
2022/09/18 06:17:00;;;;;;;0.87;0.73;;;;;;;;;;10368672;28;20026;-57
2022/09/18 06:22:01;;;;;;;0.95;0.75;;;;;;;;;;10360235;28;20049;-57
2022/09/18 06:27:01;;;;;;;0.90;0.90;;;;;;;;;;10400924;28;20405;-58
2022/09/18 06:32:01;;;;;;;0.70;0.70;;;;;;;;;;10395041;28;20037;-58
2022/09/18 06:37:02;;;;;;;0.60;0.60;;;;;;;;;;10412857;28;20037;-57
2022/09/18 06:42:03;;;;;;;1.23;0.70;;;;;;;;;;10371933;28;20033;-57
2022/09/18 06:47:03;;;;;;;0.95;0.88;;;;;;;;;;10371307;28;20026;-58
2022/09/18 06:52:04;;;;;;;0.80;0.70;;;;;;;;;;10360002;28;20109;-58
2022/09/18 06:57:05;;;;;;;0.60;0.60;;;;;;;;;;10373178;28;20491;-57
2022/09/18 07:02:10;;;;;;;0.70;0.70;;;;;;;;;;10371230;28;20026;-57
2022/09/18 07:07:11;;;;;;;0.70;0.70;;;;;;;;;;10357866;28;20026;-57
2022/09/18 07:12:11;;;;;;;3.38;0.90;;;;;;;;;;10365263;28;20041;-57
2022/09/18 07:17:11;;;;;;;0.80;0.80;;;;;;;;;;10382210;28;20401;-57
2022/09/18 07:22:11;;;;;;;1.37;0.90;;;;;;;;;;10394167;28;20439;-57
2022/09/18 07:27:12;;;;;;;0.60;0.60;;;;;;;;;;10387029;28;20032;-57
2022/09/18 07:32:12;;;;;;;1.60;0.70;;;;;;;;;;10395564;28;20483;-57
2022/09/18 07:37:13;;;;;;;1.38;0.80;;;;;;;;;;10380352;28;20033;-57
2022/09/18 07:42:13;;;;;;;0.83;0.60;;;;;;;;;;10381098;28;20018;-57
2022/09/18 07:47:14;;;;;;;1.30;0.60;;;;;;;;;;10374661;28;20029;-57
2022/09/18 07:52:14;;;;;;;0.80;0.80;;;;;;;;;;10397273;28;20045;-56
2022/09/18 07:57:14;;;;;;;2.58;0.77;;;;;;;;;;10377127;28;20038;-57
2022/09/18 08:02:14;;;;;;;1.95;1.00;;;;;;;;;;10381043;28;20061;-55
2022/09/18 08:07:15;;;;;;;2.00;0.75;;;;;;;;;;10381415;28;20147;-57
2022/09/18 08:12:15;;;;;;;4.23;0.87;;;;;;;;;;10379530;28;20413;-56
2022/09/18 08:17:15;;;;;;;6.30;1.07;;;;;;;;;;10356691;28;20493;-57
2022/09/18 08:22:16;;;;;;;2.03;0.80;;;;;;;;;;10377102;28;20053;-57
2022/09/18 08:27:16;;;;;;;2.07;0.87;;;;;;;;;;10388411;28;20451;-56
2022/09/18 08:32:16;;;;;;;3.13;1.30;;;;;;;;;;10370682;28;20124;-56
2022/09/18 08:37:16;;;;;;;1.58;1.48;;;;;;;;;;10376750;28;20030;-57
2022/09/18 08:42:22;;;;;;;3.03;1.60;;;;;;;;;;10367504;28;20022;-55
2022/09/18 08:47:26;;;;;;;3.42;1.75;;;;;;;;;;10367759;28;20494;-56
2022/09/18 08:52:27;;;;;;;2.45;1.70;;;;;;;;;;10358918;28;20085;-55
2022/09/18 08:57:36;;;;;;;3.13;2.10;;;;;;;;;;10351271;28;20437;-55
2022/09/18 09:02:41;;;;;;;2.97;2.65;;;;;;;;;;10360317;28;20176;-54
2022/09/18 09:07:42;;;;;;;6.72;2.97;;;;;;;;;;10364774;28;20544;-57
2022/09/18 09:12:48;;;;;;;4.13;3.33;;;;;;;;;;10371302;28;20046;-54
2022/09/18 09:17:55;;;;;;;5.97;3.08;;;;;;;;;;10365161;28;20037;-56
2022/09/18 09:23:01;;;;;;;5.50;3.00;;;;;;;;;;10383448;28;20484;-56
2022/09/18 09:28:02;;;;;;;8.63;3.25;;;;;;;;;;10368598;28;20027;-55
2022/09/18 09:33:31;;;;;;;4.47;2.80;;;;;;;;;;10355041;28;20033;-56
2022/09/18 09:38:40;;;;;;;3.90;2.83;;;;;;;;;;10346548;28;20426;-55
2022/09/18 09:43:48;;;;;;;7.40;3.50;;;;;;;;;;10364058;28;20061;-56
2022/09/18 09:49:11;;;;;;;5.15;2.95;;;;;;;;;;10375035;28;20028;-57
2022/09/18 09:54:12;;;;;;;3.72;3.08;;;;;;;;;;10405194;28;20131;-56
2022/09/18 09:59:27;;;;;;;3.72;2.90;;;;;;;;;;10377921;28;20024;-55
2022/09/18 10:04:27;;;;;;;5.65;3.17;;;;;;;;;;10361556;28;20034;-55
2022/09/18 10:09:46;;;;;;;4.53;2.80;;;;;;;;;;10372275;28;20421;-55
2022/09/18 10:14:48;;;;;;;3.67;2.72;;;;;;;;;;10360249;28;20041;-56
2022/09/18 10:19:48;;;;;;;3.30;2.70;;;;;;;;;;10358845;28;20051;-56
2022/09/18 10:25:00;;;;;;;3.60;2.63;;;;;;;;;;10398925;28;20021;-56
2022/09/18 10:30:05;;;;;;;3.35;2.50;;;;;;;;;;10378361;28;20030;-55
2022/09/18 10:35:24;;;;;;;3.80;2.65;;;;;;;;;;10358227;28;20026;-54
2022/09/18 10:40:29;;;;;;;3.17;2.60;;;;;;;;;;10362904;28;20033;-55
2022/09/18 10:45:35;;;;;;;3.13;2.80;;;;;;;;;;10372356;28;20038;-54
2022/09/18 10:50:36;;;;;;;3.03;2.45;;;;;;;;;;10349800;28;20030;-56
2022/09/18 10:55:46;;;;;;;3.08;2.30;;;;;;;;;;10373884;28;20029;-56
2022/09/18 11:01:00;;;;;;;4.10;2.15;;;;;;;;;;10398973;28;20047;-56
2022/09/18 11:06:02;;;;;;;2.85;2.03;;;;;;;;;;10360332;28;20036;-55
2022/09/18 11:11:04;;;;;;;5.90;2.40;;;;;;;;;;10370074;28;20029;-55
2022/09/18 11:16:04;;;;;;;4.03;2.38;;;;;;;;;;10346751;28;20474;-54
2022/09/18 11:21:06;;;;;;;4.10;2.58;;;;;;;;;;10371655;28;20030;-56
2022/09/18 11:26:18;;;;;;;2.17;1.95;;;;;;;;;;10385653;28;20413;-55
2022/09/18 11:31:19;;;;;;;3.17;1.98;;;;;;;;;;10370890;28;20037;-55
2022/09/18 11:36:25;;;;;;;2.88;2.20;;;;;;;;;;10362904;28;20060;-56
2022/09/18 11:41:33;;;;;;;6.32;2.20;;;;;;;;;;10360802;28;20028;-57
2022/09/18 11:46:58;;;;;;;2.15;1.90;;;;;;;;;;10365940;28;20053;-55
2022/09/18 11:52:02;;;;;;;2.03;1.83;;;;;;;;;;10361248;28;20080;-56
2022/09/18 11:57:03;;;;;;;3.45;1.85;;;;;;;;;;10362123;28;20022;-57
2022/09/18 12:02:18;;;;;;;2.67;1.98;;;;;;;;;;10369226;28;20421;-56
2022/09/18 12:07:37;;;;;;;2.50;1.90;;;;;;;;;;10364492;28;20087;-54
2022/09/18 12:12:39;;;;;;;5.72;2.22;;;;;;;;;;10364243;28;20037;-55
2022/09/18 12:17:40;;;;;;;4.22;3.20;;;;;;;;;;10362342;28;20022;-55
2022/09/18 12:22:46;;;;;;;5.83;2.73;;;;;;;;;;10368410;28;20055;-58
2022/09/18 12:27:58;;;;;;;6.00;3.47;;;;;;;;;;10365131;28;20026;-56
2022/09/18 12:33:12;;;;;;;8.57;4.80;;;;;;;;;;10362052;28;20053;-56
2022/09/18 12:38:18;;;;;;;8.02;4.53;;;;;;;;;;10363936;28;20442;-57
2022/09/18 12:43:21;;;;;;;8.45;4.30;;;;;;;;;;10360099;28;20041;-56
2022/09/18 12:48:25;;;;;;;8.05;4.93;;;;;;;;;;10346119;28;20040;-56
2022/09/18 12:53:31;;;;;;;13.27;4.38;;;;;;;;;;10364978;28;20099;-55
2022/09/18 12:58:31;;;;;;;9.32;4.43;;;;;;;;;;10358332;28;20095;-57
2022/09/18 13:03:33;;;;;;;7.73;4.17;;;;;;;;;;10369778;28;20034;-56
2022/09/18 13:08:57;;;;;;;7.22;4.18;;;;;;;;;;10360277;28;20532;-56
2022/09/18 13:14:01;;;;;;;7.15;3.50;;;;;;;;;;10357377;28;20497;-56
2022/09/18 13:19:14;;;;;;;8.05;3.85;;;;;;;;;;10366576;28;20060;-54
2022/09/18 13:24:16;;;;;;;5.63;3.10;;;;;;;;;;10347609;28;20042;-56
2022/09/18 13:29:36;;;;;;;6.30;3.03;;;;;;;;;;10364596;28;20025;-56
2022/09/18 13:34:37;;;;;;;6.57;3.20;;;;;;;;;;10354858;28;20053;-58
2022/09/18 13:39:37;;;;;;;6.60;2.85;;;;;;;;;;10365547;28;20044;-56
2022/09/18 13:44:38;;;;;;;6.23;3.00;;;;;;;;;;10366661;28;20022;-57
2022/09/18 13:49:41;;;;;;;8.73;3.20;;;;;;;;;;10358820;28;21054;-56
2022/09/18 13:54:58;;;;;;;5.60;2.50;;;;;;;;;;10365635;28;20026;-56
2022/09/18 14:00:06;;;;;;;4.40;2.67;;;;;;;;;;10354693;28;20022;-56
2022/09/18 14:05:08;;;;;;;2.97;2.20;;;;;;;;;;10385158;28;20024;-55
2022/09/18 14:10:25;;;;;;;5.00;2.25;;;;;;;;;;10363685;28;20041;-57
2022/09/18 14:15:25;;;;;;;3.10;2.22;;;;;;;;;;10364589;28;20521;-55
2022/09/18 14:20:25;;;;;;;7.90;2.30;;;;;;;;;;10366192;28;20057;-56
2022/09/18 14:25:42;;;;;;;4.83;2.33;;;;;;;;;;10343574;28;20045;-59
2022/09/18 14:30:43;;;;;;;2.75;1.92;;;;;;;;;;10356659;28;20046;-56
2022/09/18 14:35:43;;;;;;;6.18;2.28;;;;;;;;;;10367314;28;20377;-56
2022/09/18 14:40:47;;;;;;;5.20;1.88;;;;;;;;;;10371827;28;20072;-56
2022/09/18 14:45:48;;;;;;;2.17;1.98;;;;;;;;;;10362911;28;20265;-57
2022/09/18 14:51:09;;;;;;;3.92;1.90;;;;;;;;;;10372528;28;20266;-56
2022/09/18 14:56:12;;;;;;;4.13;2.25;;;;;;;;;;10356649;28;20041;-56
2022/09/18 15:01:17;;;;;;;2.75;1.67;;;;;;;;;;10359086;28;20072;-56
2022/09/18 15:06:26;;;;;;;4.13;1.92;;;;;;;;;;10357375;28;20113;-56
2022/09/18 15:11:28;;;;;;;3.17;1.88;;;;;;;;;;10357036;28;20030;-56
2022/09/18 15:16:29;;;;;;;3.78;2.10;;;;;;;;;;10357777;28;20053;-56
2022/09/18 15:21:32;;;;;;;2.85;1.80;;;;;;;;;;10344435;28;20025;-55
2022/09/18 15:26:41;;;;;;;4.65;1.52;;;;;;;;;;10370101;28;20029;-56
2022/09/18 15:31:41;;;;;;;2.83;1.60;;;;;;;;;;10355344;28;20029;-57
2022/09/18 15:36:43;;;;;;;4.30;1.97;;;;;;;;;;10370669;28;20030;-55
2022/09/18 15:41:44;;;;;;;2.33;1.45;;;;;;;;;;10369784;28;20030;-57
2022/09/18 15:46:44;;;;;;;3.30;1.67;;;;;;;;;;10369808;28;20033;-56
2022/09/18 15:51:45;;;;;;;2.70;1.60;;;;;;;;;;10370195;28;20034;-55
2022/09/18 15:56:55;;;;;;;2.22;1.50;;;;;;;;;;10369610;28;20030;-55
2022/09/18 16:01:56;;;;;;;1.70;1.50;;;;;;;;;;10369211;28;20026;-57
2022/09/18 16:07:19;;;;;;;2.28;1.50;;;;;;;;;;10369110;28;20393;-55
2022/09/18 16:12:28;;;;;;;3.05;1.52;;;;;;;;;;10365480;28;20139;-56
2022/09/18 16:17:28;;;;;;;2.08;1.63;;;;;;;;;;10380162;28;20022;-57
2022/09/18 16:22:29;;;;;;;5.15;1.35;;;;;;;;;;10354149;28;20389;-56
2022/09/18 16:27:30;;;;;;;2.85;1.27;;;;;;;;;;10340557;28;20172;-55
2022/09/18 16:32:30;;;;;;;2.05;1.50;;;;;;;;;;10365658;28;20030;-55
2022/09/18 16:37:30;;;;;;;3.95;1.42;;;;;;;;;;10366239;28;20040;-56
2022/09/18 16:42:30;;;;;;;3.17;1.58;;;;;;;;;;10365168;28;20528;-56
2022/09/18 16:47:31;;;;;;;1.38;1.20;;;;;;;;;;10366193;28;20048;-56
2022/09/18 16:52:31;;;;;;;2.85;1.13;;;;;;;;;;10371353;28;20386;-57
2022/09/18 16:57:32;;;;;;;5.88;1.40;;;;;;;;;;10358936;28;20026;-55
2022/09/18 17:02:33;;;;;;;5.80;1.40;;;;;;;;;;10360417;28;20101;-54
2022/09/18 17:07:39;;;;;;;3.13;1.50;;;;;;;;;;10360677;28;20026;-58
2022/09/18 17:12:39;;;;;;;2.15;1.50;;;;;;;;;;10355470;28;20085;-57
2022/09/18 17:17:40;;;;;;;19.98;3.00;;;;;;;;;;10359774;28;20168;-53
2022/09/18 17:22:40;;;;;;;6.72;1.70;;;;;;;;;;10356131;28;20033;-51
2022/09/18 17:27:41;;;;;;;10.57;1.50;;;;;;;;;;10355916;28;20034;-53
2022/09/18 17:32:42;;;;;;;6.93;1.50;;;;;;;;;;10362701;28;20026;-52
2022/09/18 17:37:42;;;;;;;9.68;1.63;;;;;;;;;;10354064;28;20545;-49
2022/09/18 17:42:43;;;;;;;4.45;1.50;;;;;;;;;;10376907;28;20391;-52
2022/09/18 17:47:43;;;;;;;6.32;1.80;;;;;;;;;;10360689;28;20473;-52
2022/09/18 17:52:43;;;;;;;6.72;1.92;;;;;;;;;;10357298;28;20056;-49
2022/09/18 17:57:44;;;;;;;11.52;1.98;;;;;;;;;;10356908;28;20394;-52
2022/09/18 18:02:44;;;;;;;10.63;2.03;;;;;;;;;;10366925;28;20481;-51
2022/09/18 18:07:44;;;;;;;11.27;2.05;;;;;;;;;;10368124;28;20060;-59
2022/09/18 18:12:44;;;;;;;8.15;1.48;;;;;;;;;;10372121;28;20055;-59
2022/09/18 18:17:46;;;;;;;8.70;2.10;;;;;;;;;;10371698;28;20038;-60
2022/09/18 18:22:46;;;;;;;20.08;1.80;;;;;;;;;;10374958;28;20064;-57
2022/09/18 18:27:47;;;;;;;6.77;1.77;;;;;;;;;;10365941;28;20118;-56
2022/09/18 18:32:47;;;;;;;5.10;1.73;;;;;;;;;;10368495;28;20779;-58
2022/09/18 18:37:47;;;;;;;10.98;1.83;;;;;;;;;;10371828;28;20088;-58
2022/09/18 18:42:48;;;;;;;4.63;1.50;;;;;;;;;;10372265;28;20030;-57
2022/09/18 18:47:49;;;;;;;5.90;1.67;;;;;;;;;;10365833;28;20021;-60
2022/09/18 18:52:51;;;;;;;5.50;1.60;;;;;;;;;;10351392;28;20073;-57
2022/09/18 18:57:51;;;;;;;4.15;1.90;;;;;;;;;;10383741;28;20040;-59
2022/09/18 19:02:52;;;;;;;3.75;1.77;;;;;;;;;;10374199;28;20060;-59
2022/09/18 19:07:52;;;;;;;3.67;2.00;;;;;;;;;;10369273;28;20541;-59
2022/09/18 19:12:56;;;;;;;6.72;2.40;;;;;;;;;;10373048;28;20132;-54
2022/09/18 19:17:56;;;;;;;3.80;2.05;;;;;;;;;;10372285;28;20061;-57
2022/09/18 19:22:57;;;;;;;3.57;1.70;;;;;;;;;;10367652;28;20501;-57
2022/09/18 19:27:57;;;;;;;5.93;2.10;;;;;;;;;;10361626;28;20535;-58
2022/09/18 19:32:57;;;;;;;4.10;2.17;;;;;;;;;;10367538;28;20049;-56
2022/09/18 19:37:58;;;;;;;2.85;2.00;;;;;;;;;;10349814;28;20036;-58
2022/09/18 19:43:05;;;;;;;6.43;2.10;;;;;;;;;;10363488;28;20033;-57
2022/09/18 19:48:07;;;;;;;5.43;1.80;;;;;;;;;;10369209;28;20028;-55
2022/09/18 19:53:07;;;;;;;7.15;1.92;;;;;;;;;;10359880;28;20030;-55
2022/09/18 19:58:08;;;;;;;3.10;1.70;;;;;;;;;;10381991;28;20476;-55
2022/09/18 20:03:09;;;;;;;4.72;2.03;;;;;;;;;;10365950;28;20242;-55
2022/09/18 20:08:09;;;;;;;5.28;1.90;;;;;;;;;;10378809;28;20030;-55
2022/09/18 20:13:10;;;;;;;3.90;1.88;;;;;;;;;;10372653;28;20052;-55
2022/09/18 20:18:10;;;;;;;4.28;1.70;;;;;;;;;;10370553;28;20030;-52
2022/09/18 20:23:11;;;;;;;5.30;1.92;;;;;;;;;;10392699;28;20052;-52
2022/09/18 20:28:11;;;;;;;8.32;1.98;;;;;;;;;;10377975;28;20078;-54
2022/09/18 20:33:12;;;;;;;5.22;2.05;;;;;;;;;;10364058;28;20029;-52
2022/09/18 20:38:12;;;;;;;6.72;2.03;;;;;;;;;;10371118;28;20048;-53
2022/09/18 20:43:13;;;;;;;8.90;1.60;;;;;;;;;;10369646;28;20485;-54
2022/09/18 20:48:13;;;;;;;5.00;2.00;;;;;;;;;;10372522;28;20508;-57
2022/09/18 20:53:14;;;;;;;4.03;1.55;;;;;;;;;;10367461;28;20045;-56
2022/09/18 20:58:15;;;;;;;7.45;2.63;;;;;;;;;;10355892;28;20483;-50
2022/09/18 21:03:17;;;;;;;4.60;2.17;;;;;;;;;;10400510;28;20393;-51
2022/09/18 21:08:18;;;;;;;8.82;1.70;;;;;;;;;;10387679;28;20473;-53
2022/09/18 21:13:19;;;;;;;4.32;2.30;;;;;;;;;;10354113;28;20061;-52
2022/09/18 21:18:19;;;;;;;5.53;1.40;;;;;;;;;;10367290;28;20387;-52
2022/09/18 21:28:39;;;;;;;15.05;1.88;;;;;;;;;;10366458;28;20401;-57
2022/09/18 21:33:40;;;;;;;7.20;1.65;;;;;;;;;;10384417;28;20041;-57
2022/09/18 21:38:41;;;;;;;4.93;1.73;;;;;;;;;;10375184;28;20041;-59
2022/09/18 21:43:42;;;;;;;6.80;1.60;;;;;;;;;;10381664;28;20034;-57
2022/09/18 21:48:42;;;;;;;2.22;1.58;;;;;;;;;;10379111;28;20033;-57
2022/09/18 21:53:43;;;;;;;4.07;1.55;;;;;;;;;;10387251;28;20036;-57
2022/09/18 21:58:44;;;;;;;4.50;1.67;;;;;;;;;;10379529;28;20105;-57
2022/09/18 22:03:55;;;;;;;2.63;1.70;;;;;;;;;;10379584;28;20033;-54
2022/09/18 22:08:56;;;;;;;9.98;1.85;;;;;;;;;;10373923;28;20288;-54
2022/09/18 22:13:58;;;;;;;8.38;2.25;;;;;;;;;;10364090;28;20054;-56
2022/09/18 22:18:58;;;;;;;2.05;1.40;;;;;;;;;;10359130;28;20027;-57
2022/09/18 22:24:05;;;;;;;2.05;1.65;;;;;;;;;;10357840;28;20393;-56
2022/09/18 22:29:07;;;;;;;2.80;1.60;;;;;;;;;;10365520;28;20034;-55
2022/09/18 22:34:07;;;;;;;9.10;1.60;;;;;;;;;;10335891;28;20033;-63
2022/09/18 22:39:07;;;;;;;3.92;1.58;;;;;;;;;;10376064;28;20448;-58
2022/09/18 22:44:08;;;;;;;8.25;1.50;;;;;;;;;;10386859;28;20048;-52
2022/09/18 22:49:11;;;;;;;6.72;1.63;;;;;;;;;;10350508;28;20404;-53
2022/09/18 22:54:12;;;;;;;1.98;1.40;;;;;;;;;;10364089;28;20060;-59
2022/09/18 22:59:13;;;;;;;2.22;1.40;;;;;;;;;;10346546;28;20489;-61
2022/09/18 23:04:16;;;;;;;6.03;1.50;;;;;;;;;;10371599;28;20033;-62
2022/09/18 23:09:17;;;;;;;2.63;1.60;;;;;;;;;;10386920;28;20063;-53
2022/09/18 23:14:22;;;;;;;3.30;1.38;;;;;;;;;;10389911;28;20054;-51
2022/09/18 23:19:24;;;;;;;2.33;1.38;;;;;;;;;;10371890;28;20029;-57
2022/09/18 23:24:25;;;;;;;2.38;1.25;;;;;;;;;;10377528;28;20037;-60
2022/09/18 23:29:27;;;;;;;1.45;1.30;;;;;;;;;;10380116;28;20037;-61
2022/09/18 23:34:28;;;;;;;4.10;1.27;;;;;;;;;;10373260;28;20022;-61
2022/09/18 23:39:30;;;;;;;4.43;1.38;;;;;;;;;;10369699;28;20018;-53
2022/09/18 23:44:30;;;;;;;1.92;1.50;;;;;;;;;;10393540;28;20034;-54
2022/09/18 23:49:30;;;;;;;2.67;1.50;;;;;;;;;;10346526;28;20045;-52
2022/09/18 23:54:31;;;;;;;3.50;1.00;;;;;;;;;;10352161;28;20034;-61
2022/09/18 23:59:31;;;;;;;1.97;1.30;;;;;;;;;;10359576;28;20042;-60
